createdAt,value
2023-02-07T00:01:18.673Z,102724.22
2023-02-07T00:03:49.856Z,102718.97
2023-02-07T00:06:21.169Z,102715.53
2023-02-07T00:08:51.434Z,102724.16
2023-02-07T00:11:23.170Z,102731.78
2023-02-07T00:13:54.480Z,102730.81
2023-02-07T00:16:28.063Z,102730.75
2023-02-07T00:19:00.217Z,102728.84
2023-02-07T00:21:30.667Z,102726.97
2023-02-07T00:24:00.490Z,102723.41
2023-02-07T00:26:30.864Z,102731.06
2023-02-07T00:29:00.405Z,102732.78
2023-02-07T00:31:34.217Z,102721.44
2023-02-07T00:34:07.577Z,102723.94
2023-02-07T00:36:38.332Z,102721.22
2023-02-07T00:39:10.258Z,102709.88
2023-02-07T00:41:39.937Z,102714.78
2023-02-07T00:44:09.806Z,102711.06
2023-02-07T00:46:42.045Z,102711.75
2023-02-07T00:49:13.357Z,102709.88
2023-02-07T00:51:42.915Z,102709.75
2023-02-07T00:54:12.416Z,102706.03
2023-02-07T00:56:41.979Z,102715.59
2023-02-07T00:59:11.709Z,102695.97
2023-02-07T01:01:43.857Z,102702.16
2023-02-07T01:04:13.478Z,102703.22
2023-02-07T01:06:43.027Z,102702.47
2023-02-07T01:09:14.267Z,102700.69
2023-02-07T01:11:43.786Z,102712.78
2023-02-07T01:14:13.315Z,102709.28
2023-02-07T01:16:45.419Z,102715.44
2023-02-07T01:19:16.086Z,102717.25
2023-02-07T01:21:45.581Z,102726.63
2023-02-07T01:24:15.092Z,102722.13
2023-02-07T01:26:44.607Z,102721.13
2023-02-07T01:29:17.113Z,102731.50
2023-02-07T01:31:49.271Z,102727.97
2023-02-07T01:34:18.980Z,102715.53
2023-02-07T01:36:49.786Z,102708.34
2023-02-07T01:39:19.321Z,102710.69
2023-02-07T01:41:48.817Z,102708.78
2023-02-07T01:44:54.358Z,102703.38
2023-02-07T01:47:27.436Z,102702.19
2023-02-07T01:49:58.952Z,102694.94
2023-02-07T01:52:33.371Z,102706.75
2023-02-07T01:55:06.431Z,102702.31
2023-02-07T01:57:36.037Z,102695.28
2023-02-07T02:00:06.788Z,102700.38
2023-02-07T02:02:47.195Z,102708.88
2023-02-07T02:05:17.874Z,102715.72
2023-02-07T02:07:47.447Z,102711.16
2023-02-07T02:10:18.221Z,102705.03
2023-02-07T02:13:10.279Z,102701.44
2023-02-07T02:15:45.797Z,102695.25
2023-02-07T02:18:29.492Z,102702.88
2023-02-07T02:21:53.095Z,102702.75
2023-02-07T02:24:42.304Z,102701.09
2023-02-07T02:27:14.574Z,102701.97
2023-02-07T02:30:13.059Z,102702.88
2023-02-07T02:33:10.479Z,102711.53
2023-02-07T02:35:45.513Z,102706.25
2023-02-07T02:38:18.216Z,102708.84
2023-02-07T02:40:53.850Z,102714.03
2023-02-07T02:43:30.822Z,102722.69
2023-02-07T02:46:01.856Z,102713.97
2023-02-07T02:48:34.137Z,102712.97
2023-02-07T02:51:03.948Z,102709.44
2023-02-07T02:53:33.812Z,102714.75
2023-02-07T02:56:23.941Z,102712.31
2023-02-07T02:59:10.334Z,102713.44
2023-02-07T03:01:47.605Z,102707.47
2023-02-07T03:04:31.335Z,102715.38
2023-02-07T03:07:13.886Z,102698.06
2023-02-07T03:09:50.751Z,102710.28
2023-02-07T03:12:25.598Z,102695.78
2023-02-07T03:15:00.906Z,102699.31
2023-02-07T03:17:36.795Z,102692.53
2023-02-07T03:20:12.591Z,102694.31
2023-02-07T03:22:42.778Z,102690.09
2023-02-07T03:25:13.012Z,102685.72
2023-02-07T03:27:43.231Z,102689.13
2023-02-07T03:30:16.456Z,102687.50
2023-02-07T03:32:50.244Z,102686.63
2023-02-07T03:35:24.592Z,102681.50
2023-02-07T03:37:58.390Z,102678.84
2023-02-07T03:40:30.140Z,102685.78
2023-02-07T03:43:05.504Z,102689.28
2023-02-07T03:45:35.108Z,102692.81
2023-02-07T03:48:04.884Z,102686.75
2023-02-07T03:50:38.154Z,102697.84
2023-02-07T03:53:08.618Z,102699.31
2023-02-07T03:55:39.014Z,102703.38
2023-02-07T03:58:09.680Z,102698.97
2023-02-07T04:00:39.684Z,102687.63
2023-02-07T04:03:09.322Z,102693.66
2023-02-07T04:05:41.613Z,102695.38
2023-02-07T04:08:11.120Z,102702.44
2023-02-07T04:10:40.675Z,102699.19
2023-02-07T04:13:10.280Z,102694.31
2023-02-07T04:15:40.240Z,102689.41
2023-02-07T04:18:09.861Z,102696.53
2023-02-07T04:20:41.959Z,102692.34
2023-02-07T04:23:11.481Z,102699.28
2023-02-07T04:25:41.047Z,102692.34
2023-02-07T04:28:10.589Z,102688.03
2023-02-07T04:30:40.144Z,102689.75
2023-02-07T04:33:09.651Z,102685.44
2023-02-07T04:35:41.898Z,102682.03
2023-02-07T04:38:11.642Z,102688.97
2023-02-07T04:40:41.929Z,102670.94
2023-02-07T04:43:11.451Z,102677.06
2023-02-07T04:45:41.221Z,102676.41
2023-02-07T04:48:10.884Z,102678.19
2023-02-07T04:50:43.099Z,102672.25
2023-02-07T04:53:12.735Z,102672.34
2023-02-07T04:55:42.291Z,102676.78
2023-02-07T04:58:12.033Z,102674.25
2023-02-07T05:00:41.556Z,102672.47
2023-02-07T05:03:11.053Z,102674.03
2023-02-07T05:05:44.894Z,102674.78
2023-02-07T05:08:15.144Z,102673.00
2023-02-07T05:10:44.761Z,102680.63
2023-02-07T05:13:14.342Z,102676.19
2023-02-07T05:15:43.858Z,102678.84
2023-02-07T05:18:13.415Z,102673.72
2023-02-07T05:20:45.587Z,102669.50
2023-02-07T05:23:15.119Z,102670.53
2023-02-07T05:25:45.044Z,102668.25
2023-02-07T05:28:14.677Z,102666.75
2023-02-07T05:30:44.314Z,102670.31
2023-02-07T05:33:11.782Z,102647.94
2023-02-07T05:35:42.556Z,102649.72
2023-02-07T05:38:16.053Z,102663.66
2023-02-07T05:40:46.601Z,102656.81
2023-02-07T05:43:16.355Z,102663.78
2023-02-07T05:45:46.370Z,102661.28
2023-02-07T05:48:16.142Z,102663.06
2023-02-07T05:50:45.675Z,102653.56
2023-02-07T05:53:17.894Z,102668.44
2023-02-07T05:55:47.418Z,102667.03
2023-02-07T05:58:20.052Z,102663.84
2023-02-07T06:00:49.741Z,102671.78
2023-02-07T06:03:19.280Z,102681.31
2023-02-07T06:05:48.918Z,102677.72
2023-02-07T06:08:21.080Z,102677.47
2023-02-07T06:10:50.843Z,102674.63
2023-02-07T06:13:20.373Z,102676.09
2023-02-07T06:15:50.355Z,102675.13
2023-02-07T06:18:20.054Z,102676.91
2023-02-07T06:20:49.604Z,102677.72
2023-02-07T06:23:23.146Z,102665.72
2023-02-07T06:25:52.836Z,102665.84
2023-02-07T06:28:22.378Z,102679.06
2023-02-07T06:30:53.454Z,102678.16
2023-02-07T06:33:23.129Z,102681.41
2023-02-07T06:35:55.564Z,102692.53
2023-02-07T06:38:27.688Z,102699.22
2023-02-07T06:40:57.237Z,102692.13
2023-02-07T06:43:26.781Z,102696.25
2023-02-07T06:45:56.442Z,102695.28
2023-02-07T06:48:26.025Z,102698.72
2023-02-07T06:50:55.549Z,102702.13
2023-02-07T06:53:28.334Z,102709.00
2023-02-07T06:55:58.137Z,102704.63
2023-02-07T06:58:27.740Z,102703.81
2023-02-07T07:00:57.278Z,102709.88
2023-02-07T07:03:28.882Z,102716.78
2023-02-07T07:05:58.933Z,102721.06
2023-02-07T07:08:31.617Z,102722.84
2023-02-07T07:11:01.107Z,102738.50
2023-02-07T07:13:30.631Z,102732.50
2023-02-07T07:16:00.263Z,102731.84
2023-02-07T07:18:29.795Z,102732.84
2023-02-07T07:20:59.752Z,102745.16
2023-02-07T07:23:31.894Z,102751.38
2023-02-07T07:26:01.493Z,102752.25
2023-02-07T07:28:31.004Z,102757.44
2023-02-07T07:31:06.669Z,102757.56
2023-02-07T07:33:36.314Z,102757.78
2023-02-07T07:36:08.743Z,102769.19
2023-02-07T07:38:44.570Z,102768.75
2023-02-07T07:41:16.936Z,102772.72
2023-02-07T07:43:46.483Z,102777.47
2023-02-07T07:46:16.144Z,102777.00
2023-02-07T07:48:45.635Z,102786.06
2023-02-07T07:51:15.179Z,102776.84
2023-02-07T07:53:47.349Z,102775.44
2023-02-07T07:56:16.903Z,102782.66
2023-02-07T07:58:46.426Z,102788.44
2023-02-07T08:01:16.025Z,102781.53
2023-02-07T08:03:45.617Z,102780.44
2023-02-07T08:06:15.174Z,102790.81
2023-02-07T08:08:47.349Z,102785.00
2023-02-07T08:11:17.037Z,102785.25
2023-02-07T08:13:46.546Z,102778.97
2023-02-07T08:16:16.139Z,102771.50
2023-02-07T08:18:46.134Z,102767.00
2023-02-07T08:21:15.718Z,102776.50
2023-02-07T08:23:47.831Z,102770.09
2023-02-07T08:26:17.364Z,102774.56
2023-02-07T08:28:47.976Z,102767.72
2023-02-07T08:31:18.166Z,102764.13
2023-02-07T08:33:47.763Z,102760.31
2023-02-07T08:36:17.476Z,102744.59
2023-02-07T08:38:49.590Z,102755.00
2023-02-07T08:41:19.092Z,102755.59
2023-02-07T08:43:48.613Z,102751.50
2023-02-07T08:46:18.152Z,102746.66
2023-02-07T08:48:47.714Z,102744.06
2023-02-07T08:51:17.246Z,102749.31
2023-02-07T08:53:49.352Z,102750.88
2023-02-07T08:56:18.880Z,102742.00
2023-02-07T08:58:48.517Z,102740.34
2023-02-07T09:01:18.029Z,102738.91
2023-02-07T09:03:47.626Z,102727.97
2023-02-07T09:06:17.150Z,102727.44
2023-02-07T09:08:49.256Z,102724.91
2023-02-07T09:11:19.467Z,102728.44
2023-02-07T09:13:49.275Z,102725.66
2023-02-07T09:16:18.976Z,102729.09
2023-02-07T09:18:50.312Z,102724.53
2023-02-07T09:21:20.990Z,102718.94
2023-02-07T09:23:53.107Z,102723.16
2023-02-07T09:26:26.565Z,102711.53
2023-02-07T09:28:56.133Z,102716.88
2023-02-07T09:31:25.939Z,102715.13
2023-02-07T09:33:55.490Z,102720.44
2023-02-07T09:36:26.626Z,102715.81
2023-02-07T09:38:59.244Z,102709.16
2023-02-07T09:41:33.206Z,102717.53
2023-02-07T09:44:08.137Z,102712.78
2023-02-07T09:46:39.616Z,102713.25
2023-02-07T09:49:13.903Z,102714.59
2023-02-07T09:51:43.836Z,102708.09
2023-02-07T09:54:23.598Z,102717.84
2023-02-07T09:56:54.712Z,102717.09
2023-02-07T09:59:27.477Z,102724.81
2023-02-07T10:02:02.179Z,102719.03
2023-02-07T10:04:34.940Z,102720.69
2023-02-07T10:07:07.827Z,102719.34
2023-02-07T10:09:44.565Z,102719.09
2023-02-07T10:12:35.359Z,102707.94
2023-02-07T10:15:17.933Z,102714.34
2023-02-07T10:18:02.083Z,102724.06
2023-02-07T10:20:33.585Z,102718.97
2023-02-07T10:23:12.365Z,102708.75
2023-02-07T10:25:53.217Z,102720.88
2023-02-07T10:28:51.305Z,102722.06
2023-02-07T10:31:21.900Z,102730.31
2023-02-07T10:33:53.803Z,102726.34
2023-02-07T10:36:23.418Z,102731.94
2023-02-07T10:39:08.325Z,102731.06
2023-02-07T10:41:45.061Z,102736.94
2023-02-07T10:44:16.413Z,102741.03
2023-02-07T10:46:48.151Z,102744.16
2023-02-07T10:49:26.199Z,102750.72
2023-02-07T10:51:58.791Z,102751.88
2023-02-07T10:54:29.703Z,102752.19
2023-02-07T10:57:03.261Z,102751.66
2023-02-07T10:59:40.706Z,102753.06
2023-02-07T11:02:39.884Z,102748.44
2023-02-07T11:05:32.767Z,102741.22
2023-02-07T11:08:04.179Z,102736.63
2023-02-07T11:10:37.704Z,102738.09
2023-02-07T11:13:16.889Z,102740.44
2023-02-07T11:15:52.595Z,102747.25
2023-02-07T11:18:44.420Z,102742.75
2023-02-07T11:21:31.218Z,102737.31
2023-02-07T11:24:03.967Z,102736.41
2023-02-07T11:26:34.323Z,102741.56
2023-02-07T11:29:17.605Z,102738.88
2023-02-07T11:31:48.470Z,102742.28
2023-02-07T11:34:43.179Z,102741.38
2023-02-07T11:37:26.071Z,102737.00
2023-02-07T11:39:58.062Z,102736.00
2023-02-07T11:42:30.679Z,102734.13
2023-02-07T11:45:06.550Z,102722.72
2023-02-07T11:47:38.389Z,102721.88
2023-02-07T11:50:10.123Z,102716.66
2023-02-07T11:52:41.632Z,102725.47
2023-02-07T11:55:17.559Z,102724.66
2023-02-07T11:57:48.586Z,102721.97
2023-02-07T12:00:25.637Z,102713.19
2023-02-07T12:03:03.507Z,102718.44
2023-02-07T12:05:35.026Z,102706.22
2023-02-07T12:08:06.789Z,102724.59
2023-02-07T12:10:38.597Z,102718.47
2023-02-07T12:13:10.603Z,102710.53
2023-02-07T12:15:45.762Z,102715.75
2023-02-07T12:18:19.896Z,102702.56
2023-02-07T12:20:50.409Z,102706.13
2023-02-07T12:23:42.810Z,102709.63
2023-02-07T12:26:20.028Z,102702.56
2023-02-07T12:29:01.388Z,102705.16
2023-02-07T12:31:54.138Z,102695.63
2023-02-07T12:34:30.812Z,102700.09
2023-02-07T12:37:05.352Z,102701.06
2023-02-07T12:39:37.487Z,102695.03
2023-02-07T12:42:18.149Z,102690.72
2023-02-07T12:44:52.304Z,102701.31
2023-02-07T12:47:25.179Z,102697.00
2023-02-07T12:50:06.069Z,102685.69
2023-02-07T12:52:42.793Z,102677.97
2023-02-07T12:55:21.068Z,102684.19
2023-02-07T12:58:09.805Z,102679.84
2023-02-07T13:00:52.575Z,102676.44
2023-02-07T13:03:34.545Z,102677.38
2023-02-07T13:06:08.048Z,102673.94
2023-02-07T13:08:47.154Z,102670.44
2023-02-07T13:11:26.404Z,102662.63
2023-02-07T13:14:05.733Z,102667.06
2023-02-07T13:16:41.850Z,102660.09
2023-02-07T13:19:21.643Z,102657.50
2023-02-07T13:21:56.030Z,102662.75
2023-02-07T13:24:26.932Z,102657.44
2023-02-07T13:26:59.035Z,102665.34
2023-02-07T13:29:30.698Z,102660.94
2023-02-07T13:32:03.444Z,102658.31
2023-02-07T13:34:39.704Z,102656.59
2023-02-07T13:37:16.856Z,102656.66
2023-02-07T13:39:54.031Z,102647.03
2023-02-07T13:42:27.979Z,102650.56
2023-02-07T13:45:01.081Z,102654.06
2023-02-07T13:47:37.064Z,102645.34
2023-02-07T13:50:17.794Z,102651.53
2023-02-07T13:52:52.385Z,102641.13
2023-02-07T13:55:28.207Z,102645.56
2023-02-07T13:58:11.568Z,102628.09
2023-02-07T14:01:03.536Z,102627.25
2023-02-07T14:03:35.658Z,102631.66
2023-02-07T14:06:25.810Z,102624.72
2023-02-07T14:09:06.179Z,102630.88
2023-02-07T14:11:38.868Z,102629.16
2023-02-07T14:14:16.121Z,102628.31
2023-02-07T14:16:49.479Z,102637.06
2023-02-07T14:19:20.446Z,102639.72
2023-02-07T14:22:20.661Z,102633.66
2023-02-07T14:25:17.011Z,102637.22
2023-02-07T14:28:10.346Z,102636.38
2023-02-07T14:30:41.590Z,102639.00
2023-02-07T14:33:17.204Z,102640.75
2023-02-07T14:36:21.003Z,102632.03
2023-02-07T14:39:09.710Z,102630.25
2023-02-07T14:41:41.448Z,102628.50
2023-02-07T14:44:26.087Z,102629.41
2023-02-07T14:46:58.918Z,102621.53
2023-02-07T14:49:33.867Z,102625.88
2023-02-07T14:52:07.842Z,102623.22
2023-02-07T14:54:45.591Z,102624.09
2023-02-07T14:57:28.201Z,102615.41
2023-02-07T15:00:03.982Z,102620.66
2023-02-07T15:02:39.567Z,102616.28
2023-02-07T15:05:25.877Z,102612.78
2023-02-07T15:08:09.034Z,102615.41
2023-02-07T15:10:46.979Z,102611.03
2023-02-07T15:13:27.028Z,102611.03
2023-02-07T15:15:59.027Z,102601.38
2023-02-07T15:18:31.193Z,102606.59
2023-02-07T15:21:01.613Z,102603.06
2023-02-07T15:23:32.637Z,102611.81
2023-02-07T15:26:08.840Z,102606.53
2023-02-07T15:28:38.747Z,102608.25
2023-02-07T15:31:10.244Z,102613.44
2023-02-07T15:33:43.008Z,102606.41
2023-02-07T15:36:31.352Z,102610.78
2023-02-07T15:39:01.795Z,102619.50
2023-02-07T15:41:34.280Z,102614.22
2023-02-07T15:44:06.067Z,102621.16
2023-02-07T15:46:48.998Z,102622.91
2023-02-07T15:49:31.844Z,102621.09
2023-02-07T15:52:10.741Z,102621.00
2023-02-07T15:54:42.725Z,102620.97
2023-02-07T15:57:17.042Z,102619.16
2023-02-07T15:59:46.970Z,102616.50
2023-02-07T16:02:25.138Z,102624.34
2023-02-07T16:04:55.116Z,102614.66
2023-02-07T16:07:25.896Z,102618.09
2023-02-07T16:09:55.596Z,102616.28
2023-02-07T16:12:37.065Z,102620.53
2023-02-07T16:15:25.519Z,102617.84
2023-02-07T16:17:55.123Z,102625.63
2023-02-07T16:20:25.648Z,102623.78
2023-02-07T16:22:55.589Z,102624.56
2023-02-07T16:25:28.463Z,102624.34
2023-02-07T16:28:00.939Z,102626.78
2023-02-07T16:30:36.571Z,102626.63
2023-02-07T16:33:07.902Z,102629.84
2023-02-07T16:35:37.586Z,102633.94
2023-02-07T16:38:07.211Z,102627.59
2023-02-07T16:40:36.986Z,102626.44
2023-02-07T16:43:09.731Z,102636.69
2023-02-07T16:45:40.758Z,102642.53
2023-02-07T16:48:16.935Z,102645.78
2023-02-07T16:50:47.016Z,102644.63
2023-02-07T16:53:16.619Z,102651.31
2023-02-07T16:55:46.351Z,102647.56
2023-02-07T16:58:25.005Z,102655.16
2023-02-07T17:00:54.659Z,102652.28
2023-02-07T17:03:25.021Z,102659.06
2023-02-07T17:05:54.799Z,102659.75
2023-02-07T17:08:27.199Z,102660.38
2023-02-07T17:10:59.479Z,102659.28
2023-02-07T17:13:31.658Z,102664.31
2023-02-07T17:16:01.305Z,102666.69
2023-02-07T17:18:30.920Z,102669.19
2023-02-07T17:21:00.503Z,102668.19
2023-02-07T17:23:30.149Z,102669.72
2023-02-07T17:25:59.736Z,102673.00
2023-02-07T17:28:32.869Z,102676.28
2023-02-07T17:31:02.547Z,102673.50
2023-02-07T17:33:32.191Z,102679.50
2023-02-07T17:36:01.778Z,102680.97
2023-02-07T17:38:31.830Z,102683.50
2023-02-07T17:41:01.395Z,102688.72
2023-02-07T17:43:34.069Z,102691.38
2023-02-07T17:46:03.709Z,102691.38
2023-02-07T17:48:33.895Z,102683.50
2023-02-07T17:51:03.558Z,102682.38
2023-02-07T17:53:33.195Z,102687.34
2023-02-07T17:56:02.803Z,102692.41
2023-02-07T17:58:37.986Z,102688.66
2023-02-07T18:01:08.370Z,102689.22
2023-02-07T18:03:37.978Z,102695.09
2023-02-07T18:06:08.399Z,102686.13
2023-02-07T18:08:38.004Z,102691.88
2023-02-07T18:11:07.829Z,102695.81
2023-02-07T18:13:40.053Z,102698.88
2023-02-07T18:16:11.330Z,102695.81
2023-02-07T18:18:41.560Z,102690.28
2023-02-07T18:21:12.731Z,102698.72
2023-02-07T18:23:44.040Z,102693.31
2023-02-07T18:26:15.052Z,102693.91
2023-02-07T18:28:47.296Z,102690.25
2023-02-07T18:31:18.912Z,102685.63
2023-02-07T18:33:48.614Z,102687.19
2023-02-07T18:36:19.158Z,102693.97
2023-02-07T18:38:48.886Z,102686.88
2023-02-07T18:41:22.744Z,102685.84
2023-02-07T18:43:55.156Z,102684.03
2023-02-07T18:46:24.795Z,102677.88
2023-02-07T18:48:57.265Z,102676.97
2023-02-07T18:51:27.765Z,102680.47
2023-02-07T18:53:57.519Z,102671.72
2023-02-07T18:56:28.648Z,102686.41
2023-02-07T18:59:01.257Z,102682.84
2023-02-07T19:01:31.678Z,102687.88
2023-02-07T19:04:01.767Z,102693.03
2023-02-07T19:06:33.524Z,102692.13
2023-02-07T19:09:03.159Z,102692.13
2023-02-07T19:11:32.821Z,102685.22
2023-02-07T19:14:05.083Z,102683.41
2023-02-07T19:16:34.784Z,102685.81
2023-02-07T19:19:04.560Z,102684.69
2023-02-07T19:21:34.413Z,102676.69
2023-02-07T19:24:07.222Z,102682.63
2023-02-07T19:26:37.096Z,102683.44
2023-02-07T19:29:09.435Z,102686.75
2023-02-07T19:31:41.295Z,102694.28
2023-02-07T19:34:10.928Z,102691.34
2023-02-07T19:36:40.603Z,102688.44
2023-02-07T19:39:10.990Z,102684.78
2023-02-07T19:41:40.599Z,102682.19
2023-02-07T19:44:13.023Z,102677.97
2023-02-07T19:46:44.172Z,102678.19
2023-02-07T19:49:14.472Z,102678.28
2023-02-07T19:51:44.482Z,102669.00
2023-02-07T19:54:14.270Z,102661.44
2023-02-07T19:56:43.900Z,102663.47
2023-02-07T19:59:16.113Z,102668.78
2023-02-07T20:01:45.730Z,102664.50
2023-02-07T20:04:15.348Z,102666.28
2023-02-07T20:06:44.953Z,102675.94
2023-02-07T20:09:14.615Z,102675.16
2023-02-07T20:11:44.206Z,102671.75
2023-02-07T20:14:16.720Z,102675.28
2023-02-07T20:16:46.976Z,102669.97
2023-02-07T20:19:16.596Z,102666.19
2023-02-07T20:21:46.210Z,102672.00
2023-02-07T20:24:15.852Z,102668.47
2023-02-07T20:26:46.790Z,102674.59
2023-02-07T20:29:20.725Z,102672.66
2023-02-07T20:31:52.191Z,102671.78
2023-02-07T20:34:22.010Z,102673.47
2023-02-07T20:36:51.592Z,102672.50
2023-02-07T20:39:23.471Z,102676.81
2023-02-07T20:41:53.277Z,102671.63
2023-02-07T20:44:26.739Z,102676.06
2023-02-07T20:46:57.579Z,102669.13
2023-02-07T20:49:29.168Z,102670.06
2023-02-07T20:52:00.150Z,102670.16
2023-02-07T20:54:31.663Z,102669.25
2023-02-07T20:57:01.475Z,102671.84
2023-02-07T20:59:35.358Z,102665.81
2023-02-07T21:02:05.038Z,102672.81
2023-02-07T21:04:34.865Z,102672.88
2023-02-07T21:07:04.514Z,102668.41
2023-02-07T21:09:34.543Z,102667.47
2023-02-07T21:12:05.117Z,102663.09
2023-02-07T21:14:37.512Z,102660.56
2023-02-07T21:17:08.887Z,102664.19
2023-02-07T21:19:39.947Z,102672.91
2023-02-07T21:22:10.143Z,102664.28
2023-02-07T21:24:39.769Z,102662.50
2023-02-07T21:27:10.058Z,102662.50
2023-02-07T21:29:42.342Z,102661.63
2023-02-07T21:32:11.930Z,102658.97
2023-02-07T21:34:41.624Z,102661.50
2023-02-07T21:37:11.200Z,102658.00
2023-02-07T21:39:40.805Z,102657.91
2023-02-07T21:42:10.435Z,102658.72
2023-02-07T21:44:42.644Z,102664.75
2023-02-07T21:47:12.329Z,102653.63
2023-02-07T21:49:43.154Z,102653.78
2023-02-07T21:52:12.742Z,102650.38
2023-02-07T21:54:42.344Z,102649.59
2023-02-07T21:57:12.021Z,102654.88
2023-02-07T21:59:44.272Z,102654.16
2023-02-07T22:02:14.260Z,102653.44
2023-02-07T22:04:43.966Z,102648.31
2023-02-07T22:07:13.590Z,102652.66
2023-02-07T22:09:43.522Z,102646.69
2023-02-07T22:12:13.137Z,102655.41
2023-02-07T22:14:45.763Z,102659.78
2023-02-07T22:17:15.411Z,102656.25
2023-02-07T22:19:45.190Z,102661.34
2023-02-07T22:22:14.791Z,102662.91
2023-02-07T22:24:44.443Z,102665.47
2023-02-07T22:27:14.439Z,102654.88
2023-02-07T22:29:46.656Z,102654.75
2023-02-07T22:32:16.271Z,102652.09
2023-02-07T22:34:46.543Z,102657.31
2023-02-07T22:37:16.147Z,102660.78
2023-02-07T22:39:45.751Z,102661.78
2023-02-07T22:42:15.562Z,102659.44
2023-02-07T22:44:48.179Z,102661.19
2023-02-07T22:47:17.765Z,102658.66
2023-02-07T22:49:47.375Z,102657.00
2023-02-07T22:52:16.938Z,102660.53
2023-02-07T22:54:46.601Z,102664.09
2023-02-07T22:57:16.286Z,102662.44
2023-02-07T22:59:48.468Z,102664.97
2023-02-07T23:02:18.115Z,102676.25
2023-02-07T23:04:47.790Z,102672.63
2023-02-07T23:07:17.488Z,102669.97
2023-02-07T23:09:47.246Z,102672.47
2023-02-07T23:12:16.839Z,102667.13
2023-02-07T23:14:49.308Z,102667.00
2023-02-07T23:17:18.934Z,102672.91
2023-02-07T23:19:48.549Z,102669.38
2023-02-07T23:22:18.574Z,102663.22
2023-02-07T23:24:48.304Z,102659.66
2023-02-07T23:27:18.086Z,102670.91
2023-02-07T23:29:50.239Z,102672.66
2023-02-07T23:32:19.899Z,102671.78
2023-02-07T23:34:49.779Z,102674.34
2023-02-07T23:37:20.265Z,102678.56
2023-02-07T23:39:49.851Z,102676.78
2023-02-07T23:42:19.679Z,102671.47
2023-02-07T23:44:51.863Z,102670.66
2023-02-07T23:47:21.935Z,102669.13
2023-02-07T23:49:51.508Z,102666.63
2023-02-07T23:52:21.119Z,102663.28
2023-02-07T23:54:50.663Z,102661.63
2023-02-07T23:57:20.272Z,102665.97
2023-02-07T23:59:52.671Z,102657.41
